createdAt,value
2022-08-09T00:34:11.075Z,14.70
2022-08-09T00:36:37.753Z,14.60
2022-08-09T00:39:06.784Z,15.30
2022-08-09T00:44:10.157Z,15.60
2022-08-09T00:44:30.946Z,14.90
2022-08-09T00:47:04.786Z,15.30
2022-08-09T00:49:36.631Z,15.20
2022-08-09T00:52:05.587Z,15.00
2022-08-09T00:54:36.466Z,14.80
2022-08-09T00:57:10.764Z,15.70
2022-08-09T00:59:41.134Z,14.90
2022-08-09T01:02:09.419Z,15.70
2022-08-09T01:04:37.494Z,14.70
2022-08-09T01:07:12.281Z,15.10
2022-08-09T01:14:39.880Z,15.40
2022-08-09T01:17:11.733Z,13.70
2022-08-09T01:19:57.129Z,14.20
2022-08-09T01:22:29.185Z,13.60
2022-08-09T01:25:28.341Z,15.70
2022-08-09T01:27:57.122Z,14.20
2022-08-09T01:33:47.751Z,14.20
2022-08-09T01:38:44.293Z,13.70
2022-08-09T01:41:18.481Z,13.80
2022-08-09T01:43:54.069Z,14.20
2022-08-09T01:46:24.567Z,14.10
2022-08-09T01:48:52.926Z,14.10
2022-08-09T01:51:22.773Z,13.60
2022-08-09T01:53:53.768Z,13.80
2022-08-09T01:56:25.200Z,13.70
2022-08-09T01:58:53.733Z,13.50
2022-08-09T02:01:21.536Z,13.30
2022-08-09T02:04:09.691Z,13.20
2022-08-09T02:06:58.602Z,13.50
2022-08-09T02:09:26.467Z,13.70
2022-08-09T02:12:09.644Z,13.80
2022-08-09T02:14:37.559Z,13.70
2022-08-09T02:17:58.444Z,13.10
2022-08-09T02:19:52.361Z,13.30
2022-08-09T02:22:37.974Z,13.10
2022-08-09T02:25:15.254Z,13.50
2022-08-09T02:28:00.332Z,13.30
2022-08-09T02:30:33.348Z,13.20
2022-08-09T02:33:01.209Z,13.20
2022-08-09T02:36:02.940Z,12.90
2022-08-09T02:38:28.631Z,13.40
2022-08-09T02:40:58.400Z,13.70
2022-08-09T02:43:26.223Z,13.00
2022-08-09T02:45:56.763Z,13.10
2022-08-09T02:48:30.837Z,13.60
2022-08-09T02:50:59.589Z,13.00
2022-08-09T02:53:37.087Z,13.50
2022-08-09T02:56:04.423Z,13.30
2022-08-09T02:58:36.331Z,13.30
2022-08-09T03:01:10.687Z,13.30
2022-08-09T03:04:17.806Z,13.30
2022-08-09T03:06:27.474Z,13.00
2022-08-09T03:08:55.411Z,11.70
2022-08-09T03:12:06.319Z,12.10
2022-08-09T03:14:10.610Z,11.60
2022-08-09T03:16:41.704Z,12.70
2022-08-09T03:19:14.314Z,11.30
2022-08-09T03:21:59.880Z,12.40
2022-08-09T03:27:09.825Z,12.40
2022-08-09T03:29:56.949Z,12.00
2022-08-09T03:32:25.554Z,12.00
2022-08-09T03:37:55.628Z,12.30
2022-08-09T03:40:08.244Z,11.50
2022-08-09T03:42:40.100Z,12.10
2022-08-09T03:45:10.439Z,12.20
2022-08-09T03:47:40.082Z,12.60
2022-08-09T03:52:37.135Z,12.60
2022-08-09T03:55:07.495Z,14.30
2022-08-09T03:57:53.668Z,12.60
2022-08-09T04:00:23.353Z,12.00
2022-08-09T04:02:52.713Z,12.70
2022-08-09T04:05:27.872Z,12.20
2022-08-09T04:07:57.265Z,11.50
2022-08-09T04:10:29.555Z,12.20
2022-08-09T04:12:57.862Z,11.20
2022-08-09T04:15:38.941Z,12.00
2022-08-09T04:18:18.201Z,11.60
2022-08-09T04:20:47.033Z,11.70
2022-08-09T04:23:16.739Z,11.90
2022-08-09T04:25:44.359Z,12.00
2022-08-09T04:28:16.413Z,12.30
2022-08-09T04:31:00.250Z,11.70
2022-08-09T04:33:32.594Z,12.10
2022-08-09T04:36:19.489Z,12.10
2022-08-09T04:38:46.605Z,12.20
2022-08-09T04:41:14.293Z,12.00
2022-08-09T04:43:53.912Z,11.70
2022-08-09T04:46:38.217Z,11.90
2022-08-09T04:49:14.496Z,12.20
2022-08-09T04:51:41.676Z,11.90
2022-08-09T06:02:02.081Z,15.30
2022-08-09T06:04:35.021Z,15.50
2022-08-09T06:07:02.229Z,15.60
2022-08-09T06:10:01.957Z,15.50
2022-08-09T06:12:15.596Z,16.20
2022-08-09T06:14:43.843Z,15.90
2022-08-09T06:22:06.328Z,16.40
2022-08-09T09:24:43.665Z,27.20
2022-08-09T09:28:05.270Z,27.10
2022-08-09T09:43:20.467Z,27.70
2022-08-09T09:45:57.610Z,27.90
2022-08-09T09:48:36.661Z,28.30
2022-08-09T09:51:11.702Z,28.70
2022-08-09T09:54:02.759Z,28.30
2022-08-09T09:56:53.398Z,27.70
2022-08-09T10:04:30.858Z,28.00
2022-08-09T10:09:25.083Z,28.10
2022-08-09T10:12:07.685Z,28.40
2022-08-09T10:14:39.823Z,28.40
2022-08-09T10:17:40.238Z,28.70
2022-08-09T10:20:03.869Z,28.70
2022-08-09T10:22:39.046Z,29.20
2022-08-09T10:35:38.242Z,30.10
2022-08-09T10:38:05.849Z,30.70
2022-08-09T10:40:52.628Z,31.50
2022-08-09T11:52:59.035Z,32.80
2022-08-09T12:23:11.447Z,35.10
2022-08-09T12:25:38.459Z,35.10
2022-08-09T12:29:11.902Z,34.40
2022-08-09T12:31:58.896Z,34.60
2022-08-09T12:34:04.004Z,35.10
2022-08-09T12:36:33.941Z,34.30
2022-08-09T12:44:09.842Z,35.10
2022-08-09T12:46:36.917Z,34.50
2022-08-09T12:52:01.159Z,34.90
2022-08-09T12:54:18.037Z,34.70
2022-08-09T12:56:51.294Z,35.30
2022-08-09T12:59:24.990Z,35.90
2022-08-09T13:02:11.645Z,35.70
2022-08-09T13:04:44.321Z,34.50
2022-08-09T13:07:19.364Z,35.60
2022-08-09T13:10:12.861Z,36.00
2022-08-09T13:13:11.080Z,36.10
2022-08-09T13:15:51.373Z,36.80
2022-08-09T13:18:20.425Z,36.70
2022-08-09T13:22:33.315Z,37.50
2022-08-09T13:24:06.347Z,36.80
2022-08-09T13:26:36.443Z,36.20
2022-08-09T13:29:06.496Z,36.70
2022-08-09T13:32:17.510Z,37.40
2022-08-09T13:34:21.104Z,37.20
2022-08-09T13:36:47.840Z,36.90
2022-08-09T13:41:56.536Z,35.90
2022-08-09T13:42:02.575Z,34.40
2022-08-09T13:44:30.341Z,33.70
2022-08-09T13:47:27.609Z,35.90
2022-08-09T13:49:57.170Z,35.90
2022-08-09T13:52:30.794Z,37.20
2022-08-09T13:55:00.082Z,37.20
2022-08-09T13:57:35.769Z,37.10
2022-08-09T14:00:07.569Z,36.00
2022-08-09T14:02:42.143Z,36.30
2022-08-09T14:05:09.881Z,36.90
2022-08-09T14:07:41.011Z,36.00
2022-08-09T14:10:17.407Z,36.00
2022-08-09T14:13:04.257Z,36.30
2022-08-09T14:16:09.379Z,36.90
2022-08-09T14:18:32.044Z,38.30
2022-08-09T14:20:59.004Z,38.50
2022-08-09T14:23:46.779Z,38.90
2022-08-09T14:26:12.868Z,37.40
2022-08-09T14:28:39.637Z,38.30
2022-08-09T14:31:09.762Z,38.30
2022-08-09T14:33:38.121Z,37.80
2022-08-09T14:36:19.809Z,38.70
2022-08-09T14:38:52.572Z,38.20
2022-08-09T14:41:34.850Z,36.00
2022-08-09T14:44:06.916Z,34.00
2022-08-09T14:54:28.068Z,34.50
2022-08-09T15:09:30.352Z,36.60
2022-08-09T15:14:58.221Z,36.90
2022-08-09T15:17:25.484Z,35.50
2022-08-09T15:19:58.967Z,32.80
2022-08-09T15:30:55.646Z,34.80
2022-08-09T15:35:18.651Z,36.50
2022-08-09T15:37:56.601Z,37.00
2022-08-09T15:57:34.212Z,36.00
2022-08-09T16:00:04.820Z,34.70
2022-08-09T16:20:41.542Z,34.40
2022-08-09T16:23:08.590Z,35.20
2022-08-09T16:25:40.540Z,34.60
2022-08-09T16:30:44.356Z,33.60
2022-08-09T16:33:11.891Z,35.30
2022-08-09T16:44:18.969Z,33.40
2022-08-09T16:46:55.044Z,33.30
2022-08-09T16:50:29.252Z,33.60
2022-08-09T18:24:09.823Z,26.40
2022-08-09T18:36:50.763Z,26.10
2022-08-09T18:39:22.246Z,26.50
2022-08-09T18:41:53.341Z,26.30
2022-08-09T18:44:22.943Z,26.60
2022-08-09T18:47:07.746Z,26.50
2022-08-09T18:49:43.573Z,26.30
2022-08-09T18:52:14.309Z,25.60
2022-08-09T18:54:52.434Z,25.90
2022-08-09T18:59:58.873Z,25.40
2022-08-09T19:02:31.887Z,26.20
2022-08-09T19:05:19.585Z,25.20
2022-08-09T19:08:04.066Z,25.20
2022-08-09T19:10:39.640Z,26.00
2022-08-09T19:13:19.841Z,25.90
2022-08-09T19:15:49.963Z,26.10
2022-08-09T19:21:00.577Z,24.60
2022-08-09T19:24:39.614Z,25.30
2022-08-09T19:26:14.165Z,25.20
2022-08-09T19:28:42.640Z,25.00
2022-08-09T19:31:16.827Z,25.20
2022-08-09T19:38:39.680Z,24.40
2022-08-09T19:41:06.676Z,24.60
2022-08-09T19:44:01.758Z,25.30
2022-08-09T19:46:34.086Z,25.00
2022-08-09T19:51:55.309Z,24.00
2022-08-09T19:54:26.956Z,24.50
2022-08-09T19:59:57.805Z,23.80
2022-08-09T20:02:15.789Z,24.30
2022-08-09T20:04:55.251Z,24.90
2022-08-09T20:09:50.015Z,23.40
2022-08-09T20:12:31.721Z,24.50
2022-08-09T20:15:04.773Z,23.30
2022-08-09T20:17:54.448Z,23.30
2022-08-09T20:20:22.168Z,23.80
2022-08-09T20:22:51.523Z,23.70
2022-08-09T20:25:23.443Z,23.60
2022-08-09T20:27:51.100Z,24.10
2022-08-09T20:30:21.698Z,22.60
2022-08-09T20:32:52.198Z,23.80
2022-08-09T20:35:19.958Z,23.10
2022-08-09T20:38:19.340Z,22.80
2022-08-09T20:40:33.623Z,24.50
2022-08-09T20:43:33.450Z,23.80
2022-08-09T20:46:33.471Z,22.80
2022-08-09T20:48:48.343Z,24.40
2022-08-09T20:51:19.316Z,24.00
2022-08-09T20:53:46.483Z,24.30
2022-08-09T20:56:21.320Z,23.60
2022-08-09T20:58:54.483Z,22.30
2022-08-09T21:01:35.352Z,22.30
2022-08-09T21:05:52.348Z,23.30
2022-08-09T21:07:11.618Z,23.30
2022-08-09T21:09:56.465Z,21.70
2022-08-09T21:15:13.494Z,22.00
2022-08-09T21:18:22.931Z,21.90
2022-08-09T21:25:55.688Z,21.20
2022-08-09T21:28:33.142Z,21.20
2022-08-09T21:31:00.657Z,21.90
2022-08-09T21:33:43.646Z,21.00
2022-08-09T21:36:10.382Z,20.90
2022-08-09T21:38:38.163Z,20.70
2022-08-09T21:43:56.775Z,20.60
2022-08-09T21:46:24.156Z,21.00
2022-08-09T21:48:52.066Z,21.90
2022-08-09T21:51:24.161Z,21.80
2022-08-09T21:54:02.767Z,21.50
2022-08-09T21:56:43.521Z,19.70
2022-08-09T22:02:00.345Z,19.50
2022-08-09T22:07:23.320Z,18.60
2022-08-09T22:10:01.555Z,18.90
2022-08-09T22:12:30.602Z,18.90
2022-08-09T22:14:58.114Z,18.80
2022-08-09T22:17:24.966Z,18.80
2022-08-09T22:19:58.713Z,19.10
2022-08-09T22:22:28.903Z,19.70
2022-08-09T22:26:08.689Z,18.40
2022-08-09T22:30:09.645Z,18.00
2022-08-09T22:35:06.670Z,17.80
2022-08-09T22:38:07.374Z,17.90
2022-08-09T22:40:35.346Z,17.10
2022-08-09T22:43:16.185Z,19.80
2022-08-09T22:48:14.810Z,17.70
2022-08-09T22:48:36.127Z,18.20
2022-08-09T22:51:10.275Z,19.20
2022-08-09T22:53:58.442Z,19.40
2022-08-09T22:59:00.081Z,17.50
2022-08-09T23:01:26.836Z,19.20
2022-08-09T23:04:04.686Z,20.50
2022-08-09T23:06:51.799Z,17.40
2022-08-09T23:38:49.745Z,16.70
2022-08-09T23:41:27.991Z,16.30
2022-08-09T23:43:56.400Z,17.90
2022-08-09T23:46:23.168Z,16.30
2022-08-09T23:48:49.829Z,16.60
2022-08-09T23:58:41.167Z,16.30
